createdAt,value
2022-11-03T00:02:05.237Z,100435.69
2022-11-03T00:04:33.126Z,100431.44
2022-11-03T00:07:00.893Z,100427.09
2022-11-03T00:09:28.699Z,100423.81
2022-11-03T00:11:56.501Z,100433.00
2022-11-03T00:14:24.332Z,100426.06
2022-11-03T00:16:53.572Z,100434.13
2022-11-03T00:19:21.945Z,100430.78
2022-11-03T00:21:49.925Z,100425.09
2022-11-03T00:24:17.747Z,100431.06
2022-11-03T00:26:45.555Z,100441.19
2022-11-03T00:29:15.691Z,100444.13
2022-11-03T00:31:44.968Z,100429.88
2022-11-03T00:34:14.128Z,100449.41
2022-11-03T00:36:43.768Z,100441.84
2022-11-03T00:39:12.541Z,100432.69
2022-11-03T00:41:40.851Z,100433.41
2022-11-03T00:44:10.503Z,100445.13
2022-11-03T00:46:38.662Z,100450.25
2022-11-03T00:49:07.203Z,100452.56
2022-11-03T00:51:36.406Z,100459.16
2022-11-03T00:54:06.030Z,100448.16
2022-11-03T00:56:36.031Z,100444.59
2022-11-03T00:59:04.997Z,100446.06
2022-11-03T01:01:39.221Z,100451.59
2022-11-03T01:04:28.762Z,100463.72
2022-11-03T01:06:59.800Z,100460.03
2022-11-03T01:09:29.577Z,100458.19
2022-11-03T01:12:00.671Z,100455.00
2022-11-03T01:14:31.860Z,100457.25
2022-11-03T01:17:00.062Z,100463.31
2022-11-03T01:19:28.077Z,100466.03
2022-11-03T01:21:56.088Z,100463.47
2022-11-03T01:24:25.322Z,100462.44
2022-11-03T01:26:53.113Z,100460.94
2022-11-03T01:29:20.967Z,100447.88
2022-11-03T01:31:49.028Z,100454.25
2022-11-03T01:34:18.298Z,100455.31
2022-11-03T01:36:47.160Z,100463.06
2022-11-03T01:39:16.611Z,100458.28
2022-11-03T01:41:48.149Z,100458.34
2022-11-03T01:44:31.031Z,100457.56
2022-11-03T01:47:10.153Z,100460.44
2022-11-03T01:49:45.631Z,100453.19
2022-11-03T01:52:19.115Z,100450.72
2022-11-03T01:54:51.146Z,100451.63
2022-11-03T01:57:25.455Z,100453.47
2022-11-03T01:59:55.832Z,100445.19
2022-11-03T02:02:27.100Z,100435.06
2022-11-03T02:04:56.546Z,100430.34
2022-11-03T02:07:28.101Z,100434.28
2022-11-03T02:09:55.993Z,100434.13
2022-11-03T02:12:25.469Z,100431.72
2022-11-03T02:14:59.551Z,100435.13
2022-11-03T02:17:29.938Z,100438.13
2022-11-03T02:20:01.082Z,100443.88
2022-11-03T02:22:44.768Z,100440.47
2022-11-03T02:25:18.834Z,100433.63
2022-11-03T02:27:48.108Z,100428.81
2022-11-03T02:30:16.087Z,100436.47
2022-11-03T02:32:57.086Z,100424.38
2022-11-03T02:35:32.819Z,100427.69
2022-11-03T02:38:06.029Z,100424.56
2022-11-03T02:40:37.401Z,100422.06
2022-11-03T02:43:09.135Z,100415.88
2022-11-03T02:45:38.703Z,100420.84
2022-11-03T02:48:07.826Z,100419.56
2022-11-03T02:50:35.891Z,100411.03
2022-11-03T02:53:04.381Z,100394.34
2022-11-03T02:55:38.234Z,100407.44
2022-11-03T02:58:17.442Z,100407.50
2022-11-03T03:00:50.594Z,100407.81
2022-11-03T03:03:23.591Z,100410.28
2022-11-03T03:05:57.566Z,100397.28
2022-11-03T03:08:27.865Z,100403.59
2022-11-03T03:10:56.503Z,100397.03
2022-11-03T03:13:26.219Z,100414.91
2022-11-03T03:16:07.797Z,100411.69
2022-11-03T03:18:48.851Z,100411.25
2022-11-03T03:21:22.602Z,100410.97
2022-11-03T03:23:55.869Z,100405.38
2022-11-03T03:26:29.244Z,100395.19
2022-11-03T03:29:00.943Z,100391.38
2022-11-03T03:31:32.281Z,100381.06
2022-11-03T03:34:05.091Z,100394.00
2022-11-03T03:36:41.286Z,100400.56
2022-11-03T03:39:12.854Z,100394.91
2022-11-03T03:41:41.814Z,100397.13
2022-11-03T03:44:12.792Z,100400.47
2022-11-03T03:46:45.765Z,100392.78
2022-11-03T03:49:14.156Z,100380.03
2022-11-03T03:51:42.952Z,100387.16
2022-11-03T03:54:10.950Z,100373.13
2022-11-03T03:56:43.412Z,100390.75
2022-11-03T03:59:12.590Z,100389.84
2022-11-03T04:01:40.529Z,100403.31
2022-11-03T04:04:08.486Z,100395.81
2022-11-03T04:06:36.299Z,100394.91
2022-11-03T04:09:04.394Z,100389.13
2022-11-03T04:11:49.822Z,100394.75
2022-11-03T04:14:36.186Z,100394.94
2022-11-03T04:17:21.471Z,100388.44
2022-11-03T04:20:06.716Z,100392.97
2022-11-03T04:22:35.076Z,100380.56
2022-11-03T04:25:02.935Z,100381.19
2022-11-03T04:27:33.274Z,100353.16
2022-11-03T04:30:08.560Z,100373.59
2022-11-03T04:32:37.268Z,100376.25
2022-11-03T04:35:15.126Z,100368.81
2022-11-03T04:37:47.476Z,100369.66
2022-11-03T04:40:17.486Z,100372.84
2022-11-03T04:42:45.846Z,100373.63
2022-11-03T04:45:23.316Z,100369.66
2022-11-03T04:47:52.891Z,100364.59
2022-11-03T04:50:22.732Z,100366.28
2022-11-03T04:52:56.016Z,100370.81
2022-11-03T04:55:23.896Z,100366.63
2022-11-03T04:57:57.904Z,100358.03
2022-11-03T05:00:27.238Z,100367.47
2022-11-03T05:02:56.463Z,100360.13
2022-11-03T05:05:26.244Z,100366.81
2022-11-03T05:07:56.456Z,100362.13
2022-11-03T05:10:26.935Z,100355.16
2022-11-03T05:12:55.969Z,100363.19
2022-11-03T05:15:35.893Z,100361.69
2022-11-03T05:18:16.402Z,100353.00
2022-11-03T05:20:48.949Z,100357.25
2022-11-03T05:23:17.294Z,100366.44
2022-11-03T05:25:48.460Z,100366.16
2022-11-03T05:28:25.271Z,100350.56
2022-11-03T05:30:55.090Z,100353.81
2022-11-03T05:33:29.386Z,100360.00
2022-11-03T05:36:00.572Z,100355.97
2022-11-03T05:38:32.078Z,100352.53
2022-11-03T05:41:00.342Z,100354.41
2022-11-03T05:43:29.628Z,100358.47
2022-11-03T05:46:02.619Z,100367.78
2022-11-03T05:48:34.198Z,100359.53
2022-11-03T05:51:11.679Z,100327.47
2022-11-03T05:53:43.251Z,100354.97
2022-11-03T05:56:17.391Z,100367.38
2022-11-03T05:58:45.978Z,100367.22
2022-11-03T06:01:20.833Z,100363.09
2022-11-03T06:03:49.177Z,100359.69
2022-11-03T06:06:21.949Z,100361.53
2022-11-03T06:08:50.351Z,100359.22
2022-11-03T06:11:25.627Z,100369.75
2022-11-03T06:13:53.510Z,100375.44
2022-11-03T06:16:42.374Z,100380.16
2022-11-03T06:19:21.642Z,100383.66
2022-11-03T06:21:51.173Z,100383.22
2022-11-03T06:24:22.023Z,100384.75
2022-11-03T06:26:52.277Z,100387.38
2022-11-03T06:29:22.049Z,100370.81
2022-11-03T06:31:53.995Z,100381.09
2022-11-03T06:34:37.895Z,100388.00
2022-11-03T06:37:20.815Z,100390.09
2022-11-03T06:39:50.374Z,100397.25
2022-11-03T06:42:21.559Z,100407.78
2022-11-03T06:44:51.464Z,100402.81
2022-11-03T06:47:24.634Z,100402.00
2022-11-03T06:49:54.928Z,100406.19
2022-11-03T06:52:28.519Z,100401.38
2022-11-03T06:55:02.584Z,100404.06
2022-11-03T06:57:35.751Z,100397.06
2022-11-03T07:00:28.544Z,100391.88
2022-11-03T07:03:07.350Z,100401.56
2022-11-03T07:05:36.659Z,100393.00
2022-11-03T07:08:14.228Z,100397.28
2022-11-03T07:10:42.209Z,100396.47
2022-11-03T07:13:15.445Z,100395.50
2022-11-03T07:15:46.484Z,100383.13
2022-11-03T07:18:22.200Z,100378.47
2022-11-03T07:20:50.201Z,100388.72
2022-11-03T07:23:22.921Z,100389.66
2022-11-03T07:25:54.756Z,100388.78
2022-11-03T07:28:30.289Z,100385.84
2022-11-03T07:31:00.251Z,100378.66
2022-11-03T07:33:32.303Z,100382.06
2022-11-03T07:36:17.259Z,100385.63
2022-11-03T07:38:48.662Z,100381.53
2022-11-03T07:41:20.287Z,100367.34
2022-11-03T07:43:54.293Z,100368.50
2022-11-03T07:46:24.220Z,100368.84
2022-11-03T07:48:57.605Z,100364.00
2022-11-03T07:51:29.693Z,100366.72
2022-11-03T07:54:03.214Z,100365.09
2022-11-03T07:56:36.527Z,100360.28
2022-11-03T07:59:14.620Z,100347.78
2022-11-03T08:01:44.832Z,100344.50
2022-11-03T08:04:19.941Z,100339.91
2022-11-03T08:06:49.188Z,100344.53
2022-11-03T08:09:17.231Z,100339.97
2022-11-03T08:11:45.495Z,100336.06
2022-11-03T08:14:13.427Z,100338.78
2022-11-03T08:16:41.720Z,100327.38
2022-11-03T08:19:09.715Z,100318.09
2022-11-03T08:21:38.887Z,100311.16
2022-11-03T08:24:07.127Z,100305.53
2022-11-03T08:26:34.964Z,100312.63
2022-11-03T08:29:02.820Z,100313.44
2022-11-03T08:31:30.609Z,100303.91
2022-11-03T08:33:58.407Z,100303.03
2022-11-03T08:36:26.194Z,100299.81
2022-11-03T08:38:55.337Z,100304.88
2022-11-03T08:41:23.171Z,100305.66
2022-11-03T08:43:50.988Z,100292.38
2022-11-03T08:46:18.795Z,100285.78
2022-11-03T08:48:47.015Z,100276.75
2022-11-03T08:51:15.867Z,100278.47
2022-11-03T08:53:44.295Z,100286.25
2022-11-03T08:56:16.961Z,100274.19
2022-11-03T08:58:47.353Z,100281.66
2022-11-03T09:01:15.608Z,100278.00
2022-11-03T09:03:46.758Z,100287.69
2022-11-03T09:06:14.727Z,100276.28
2022-11-03T09:11:31.921Z,100270.56
2022-11-03T09:13:59.732Z,100276.31
2022-11-03T09:16:27.496Z,100274.38
2022-11-03T09:18:55.365Z,100278.16
2022-11-03T09:21:28.291Z,100279.03
2022-11-03T09:23:56.196Z,100270.00
2022-11-03T09:26:24.136Z,100270.19
2022-11-03T09:28:53.591Z,100268.59
2022-11-03T09:31:21.439Z,100264.41
2022-11-03T09:33:49.347Z,100259.44
2022-11-03T09:36:17.297Z,100262.72
2022-11-03T09:38:45.221Z,100265.28
2022-11-03T09:41:26.429Z,100261.16
2022-11-03T09:44:00.410Z,100250.47
2022-11-03T09:46:30.272Z,100249.13
2022-11-03T09:48:59.357Z,100243.41
2022-11-03T09:51:28.675Z,100248.56
2022-11-03T09:53:59.462Z,100239.50
2022-11-03T09:56:27.886Z,100234.56
2022-11-03T09:58:55.770Z,100231.16
2022-11-03T10:01:25.301Z,100216.81
2022-11-03T10:03:53.811Z,100216.88
2022-11-03T10:06:21.817Z,100217.63
2022-11-03T10:08:50.316Z,100209.19
2022-11-03T10:11:18.743Z,100194.72
2022-11-03T10:13:52.867Z,100197.00
2022-11-03T10:16:24.160Z,100186.75
2022-11-03T10:18:53.725Z,100185.00
2022-11-03T10:21:24.890Z,100182.44
2022-11-03T10:23:52.715Z,100182.53
2022-11-03T10:26:21.196Z,100166.50
2022-11-03T10:29:00.446Z,100160.63
2022-11-03T10:31:35.895Z,100161.53
2022-11-03T10:34:06.046Z,100166.78
2022-11-03T10:36:35.247Z,100173.56
2022-11-03T10:39:25.323Z,100160.28
2022-11-03T10:41:58.018Z,100163.81
2022-11-03T10:44:28.574Z,100156.28
2022-11-03T10:46:58.341Z,100157.13
2022-11-03T10:49:29.398Z,100151.41
2022-11-03T10:52:06.775Z,100144.03
2022-11-03T10:54:37.844Z,100142.50
2022-11-03T10:57:05.991Z,100126.63
2022-11-03T10:59:37.419Z,100125.94
2022-11-03T11:02:16.788Z,100125.22
2022-11-03T11:04:47.682Z,100111.97
2022-11-03T11:07:23.257Z,100107.84
2022-11-03T11:09:51.329Z,100099.59
2022-11-03T11:12:23.044Z,100089.53
2022-11-03T11:14:56.730Z,100084.66
2022-11-03T11:17:44.378Z,100078.03
2022-11-03T11:20:34.088Z,100064.59
2022-11-03T11:23:52.632Z,100067.31
2022-11-03T11:26:41.578Z,100063.31
2022-11-03T11:29:36.032Z,100056.75
2022-11-03T11:32:50.576Z,100054.34
2022-11-03T11:35:34.379Z,100047.03
2022-11-03T11:38:31.942Z,100047.19
2022-11-03T11:41:01.118Z,100041.59
2022-11-03T11:43:29.373Z,100035.94
2022-11-03T11:46:36.612Z,100031.94
2022-11-03T11:49:18.124Z,100021.94
2022-11-03T11:51:46.385Z,100017.75
2022-11-03T11:54:18.861Z,100018.66
2022-11-03T11:56:50.886Z,100012.91
2022-11-03T11:59:25.173Z,100009.63
2022-11-03T12:01:56.417Z,99999.59
2022-11-03T12:04:27.616Z,99997.03
2022-11-03T12:06:55.809Z,99965.94
2022-11-03T12:09:27.067Z,99979.78
2022-11-03T12:12:00.561Z,99982.41
2022-11-03T12:14:36.998Z,99980.84
2022-11-03T12:17:33.910Z,99973.50
2022-11-03T12:20:01.831Z,99971.91
2022-11-03T12:22:43.016Z,99967.03
2022-11-03T12:25:34.332Z,99965.53
2022-11-03T12:28:04.267Z,99961.47
2022-11-03T12:30:35.597Z,99952.44
2022-11-03T12:33:07.506Z,99946.72
2022-11-03T12:35:35.498Z,99955.25
2022-11-03T12:38:03.276Z,99952.75
2022-11-03T12:40:31.091Z,99946.88
2022-11-03T12:42:58.875Z,99938.41
2022-11-03T12:45:28.058Z,99941.72
2022-11-03T12:47:55.838Z,99939.22
2022-11-03T12:50:23.623Z,99935.09
2022-11-03T12:52:51.414Z,99933.38
2022-11-03T12:55:19.260Z,99932.78
2022-11-03T12:57:47.120Z,99903.59
2022-11-03T13:00:16.088Z,99928.25
2022-11-03T13:02:45.432Z,99922.47
2022-11-03T13:05:15.326Z,99926.78
2022-11-03T13:07:43.419Z,99914.16
2022-11-03T13:10:11.403Z,99915.84
2022-11-03T13:12:41.405Z,99914.16
2022-11-03T13:15:13.327Z,99913.31
2022-11-03T13:18:07.243Z,99911.59
2022-11-03T13:20:31.908Z,99910.75
2022-11-03T13:22:59.731Z,99913.28
2022-11-03T13:25:28.800Z,99897.22
2022-11-03T13:27:57.140Z,99899.72
2022-11-03T13:30:26.266Z,99892.03
2022-11-03T13:32:54.598Z,99890.28
2022-11-03T13:35:22.595Z,99890.16
2022-11-03T13:37:51.810Z,99884.19
2022-11-03T13:43:11.683Z,99882.41
2022-11-03T13:45:39.859Z,99876.47
2022-11-03T13:49:07.444Z,99861.34
2022-11-03T13:50:56.667Z,99852.16
2022-11-03T13:56:19.506Z,99822.81
2022-11-03T14:01:37.858Z,99806.84
2022-11-03T14:06:54.110Z,99805.00
2022-11-03T14:09:23.381Z,99798.22
2022-11-03T14:12:08.623Z,99788.91
2022-11-03T14:14:36.431Z,99787.97
2022-11-03T14:17:04.278Z,99775.28
2022-11-03T14:19:38.150Z,99787.81
2022-11-03T14:22:09.536Z,99775.94
2022-11-03T14:24:38.701Z,99768.34
2022-11-03T14:27:06.597Z,99761.53
2022-11-03T14:29:34.432Z,99767.34
2022-11-03T14:32:02.349Z,99770.59
2022-11-03T14:34:30.241Z,99781.41
2022-11-03T14:36:58.458Z,99802.31
2022-11-03T14:39:26.301Z,99805.63
2022-11-03T14:42:03.343Z,99803.88
2022-11-03T14:44:31.594Z,99793.72
2022-11-03T14:47:01.275Z,99797.84
2022-11-03T14:49:29.154Z,99791.03
2022-11-03T14:51:57.819Z,99791.75
2022-11-03T14:54:25.647Z,99791.69
2022-11-03T14:56:55.263Z,99787.47
2022-11-03T14:59:23.299Z,99768.88
2022-11-03T15:01:51.770Z,99781.53
2022-11-03T15:04:19.710Z,99777.31
2022-11-03T15:06:47.567Z,99764.66
2022-11-03T15:09:15.603Z,99766.28
2022-11-03T15:11:43.885Z,99778.03
2022-11-03T15:14:13.617Z,99772.09
2022-11-03T15:16:41.916Z,99767.03
2022-11-03T15:19:09.781Z,99770.41
2022-11-03T15:21:37.589Z,99760.31
2022-11-03T15:26:53.515Z,99760.25
2022-11-03T15:29:23.849Z,99757.72
2022-11-03T15:31:51.763Z,99756.03
2022-11-03T15:34:19.679Z,99749.25
2022-11-03T15:36:47.537Z,99755.13
2022-11-03T15:39:15.994Z,99761.75
2022-11-03T15:41:43.776Z,99751.63
2022-11-03T15:44:11.552Z,99759.97
2022-11-03T15:46:40.711Z,99755.72
2022-11-03T15:49:08.512Z,99764.16
2022-11-03T15:51:36.313Z,99754.09
2022-11-03T15:54:04.380Z,99754.03
2022-11-03T15:56:32.223Z,99753.97
2022-11-03T15:59:00.020Z,99747.25
2022-11-03T16:01:27.889Z,99743.06
2022-11-03T16:03:57.136Z,99743.81
2022-11-03T16:06:46.581Z,99733.69
2022-11-03T16:09:12.737Z,99738.66
2022-11-03T16:11:40.559Z,99731.94
2022-11-03T16:14:08.354Z,99732.78
2022-11-03T16:16:36.152Z,99727.78
2022-11-03T16:19:05.319Z,99734.53
2022-11-03T16:21:33.453Z,99735.34
2022-11-03T16:24:01.302Z,99737.03
2022-11-03T16:26:29.085Z,99738.72
2022-11-03T16:28:56.864Z,99740.41
2022-11-03T16:31:24.650Z,99703.19
2022-11-03T16:33:52.664Z,99737.94
2022-11-03T16:36:21.816Z,99737.09
2022-11-03T16:38:49.622Z,99745.44
2022-11-03T16:41:17.425Z,99736.28
2022-11-03T16:43:46.989Z,99728.63
2022-11-03T16:46:14.785Z,99738.66
2022-11-03T16:48:42.639Z,99737.75
2022-11-03T16:51:13.758Z,99734.38
2022-11-03T16:53:42.974Z,99736.06
2022-11-03T16:56:10.794Z,99733.50
2022-11-03T16:58:38.614Z,99739.31
2022-11-03T17:01:06.880Z,99732.56
2022-11-03T17:03:34.715Z,99729.25
2022-11-03T17:06:02.555Z,99720.00
2022-11-03T17:11:35.676Z,99727.56
2022-11-03T17:14:05.194Z,99710.81
2022-11-03T17:16:33.018Z,99691.56
2022-11-03T17:19:00.881Z,99682.34
2022-11-03T17:21:28.745Z,99686.50
2022-11-03T17:23:58.854Z,99688.91
2022-11-03T17:26:37.736Z,99677.91
2022-11-03T17:29:16.308Z,99673.69
2022-11-03T17:31:45.250Z,99671.97
2022-11-03T17:34:13.125Z,99675.25
2022-11-03T17:36:41.493Z,99672.69
2022-11-03T17:39:13.148Z,99676.00
2022-11-03T17:41:42.445Z,99673.47
2022-11-03T17:44:12.067Z,99664.28
2022-11-03T17:46:39.924Z,99667.56
2022-11-03T17:49:07.741Z,99665.03
2022-11-03T17:51:35.959Z,99665.78
2022-11-03T17:54:08.083Z,99661.63
2022-11-03T17:56:36.319Z,99662.50
2022-11-03T17:59:05.624Z,99660.81
2022-11-03T18:01:33.567Z,99661.69
2022-11-03T18:04:02.757Z,99649.06
2022-11-03T18:06:30.808Z,99664.25
2022-11-03T18:08:59.333Z,99662.59
2022-11-03T18:11:48.464Z,99655.06
2022-11-03T18:14:18.264Z,99666.03
2022-11-03T18:16:46.486Z,99664.44
2022-11-03T18:19:15.627Z,99656.06
2022-11-03T18:21:43.843Z,99656.88
2022-11-03T18:24:16.486Z,99656.09
2022-11-03T18:26:44.818Z,99644.34
2022-11-03T18:29:12.589Z,99648.53
2022-11-03T18:31:43.941Z,99646.03
2022-11-03T18:34:15.710Z,99646.03
2022-11-03T18:36:44.338Z,99638.47
2022-11-03T18:39:18.089Z,99641.81
2022-11-03T18:41:45.924Z,99634.25
2022-11-03T18:44:18.696Z,99623.28
2022-11-03T18:46:48.816Z,99622.41
2022-11-03T18:49:16.882Z,99620.75
2022-11-03T18:51:49.513Z,99600.44
2022-11-03T18:56:54.238Z,99609.75
2022-11-03T18:59:25.026Z,99616.50
2022-11-03T19:01:54.741Z,99616.53
2022-11-03T19:04:22.699Z,99614.03
2022-11-03T19:06:52.777Z,99616.50
2022-11-03T19:09:24.473Z,99606.44
2022-11-03T19:11:56.024Z,99606.47
2022-11-03T19:14:26.707Z,99596.41
2022-11-03T19:19:44.984Z,99586.31
2022-11-03T19:22:14.671Z,99594.75
2022-11-03T19:24:42.794Z,99586.38
2022-11-03T19:27:17.154Z,99572.88
2022-11-03T19:29:46.851Z,99569.66
2022-11-03T19:32:20.559Z,99567.19
2022-11-03T19:34:52.566Z,99554.66
2022-11-03T19:37:20.392Z,99547.16
2022-11-03T19:39:48.443Z,99533.81
2022-11-03T19:42:28.891Z,99540.53
2022-11-03T19:44:58.122Z,99543.84
2022-11-03T19:47:32.525Z,99537.19
2022-11-03T19:50:02.332Z,99529.72
2022-11-03T19:52:32.598Z,99525.66
2022-11-03T19:55:05.437Z,99522.31
2022-11-03T19:57:33.542Z,99512.91
2022-11-03T20:00:01.377Z,99520.47
2022-11-03T20:02:30.673Z,99505.38
2022-11-03T20:04:58.554Z,99516.34
2022-11-03T20:07:31.653Z,99515.47
2022-11-03T20:10:02.078Z,99526.50
2022-11-03T20:12:30.842Z,99529.03
2022-11-03T20:14:58.683Z,99523.13
2022-11-03T20:17:27.212Z,99523.06
2022-11-03T20:19:56.456Z,99521.34
2022-11-03T20:22:29.035Z,99514.66
2022-11-03T20:25:00.612Z,99492.69
2022-11-03T20:27:28.515Z,99520.44
2022-11-03T20:29:56.361Z,99517.09
2022-11-03T20:32:24.238Z,99513.78
2022-11-03T20:34:52.043Z,99510.41
2022-11-03T20:37:21.674Z,99510.41
2022-11-03T20:39:49.899Z,99510.50
2022-11-03T20:42:20.467Z,99501.31
2022-11-03T20:44:48.418Z,99490.47
2022-11-03T20:47:17.346Z,99485.38
2022-11-03T20:49:45.464Z,99468.47
2022-11-03T20:52:14.671Z,99475.25
2022-11-03T20:54:44.222Z,99476.09
2022-11-03T20:57:12.951Z,99465.16
2022-11-03T20:59:41.311Z,99470.13
2022-11-03T21:02:11.783Z,99461.66
2022-11-03T21:04:40.410Z,99459.09
2022-11-03T21:07:10.776Z,99448.19
2022-11-03T21:09:38.601Z,99446.56
2022-11-03T21:12:12.471Z,99449.06
2022-11-03T21:15:01.954Z,99432.22
2022-11-03T21:17:43.748Z,99439.81
2022-11-03T21:20:12.716Z,99432.28
2022-11-03T21:22:57.425Z,99419.66
2022-11-03T21:25:25.512Z,99423.00
2022-11-03T21:27:55.305Z,99403.75
2022-11-03T21:30:24.103Z,99390.25
2022-11-03T21:32:52.268Z,99399.63
2022-11-03T21:35:21.895Z,99403.78
2022-11-03T21:37:49.917Z,99395.38
2022-11-03T21:40:18.512Z,99369.25
2022-11-03T21:43:03.907Z,99387.75
2022-11-03T21:45:33.584Z,99388.66
2022-11-03T21:48:19.648Z,99387.03
2022-11-03T21:50:47.944Z,99372.84
2022-11-03T21:53:15.730Z,99372.00
2022-11-03T21:55:43.535Z,99366.16
2022-11-03T21:58:11.323Z,99356.97
2022-11-03T22:00:40.506Z,99359.53
2022-11-03T22:03:08.728Z,99359.56
2022-11-03T22:05:36.735Z,99357.97
2022-11-03T22:08:07.850Z,99348.81
2022-11-03T22:10:38.617Z,99346.25
2022-11-03T22:13:06.834Z,99348.72
2022-11-03T22:15:52.594Z,99335.28
2022-11-03T22:18:21.712Z,99331.94
2022-11-03T22:21:07.387Z,99330.28
2022-11-03T22:23:52.619Z,99321.06
2022-11-03T22:26:37.959Z,99326.94
2022-11-03T22:29:19.748Z,99313.56
2022-11-03T22:31:47.629Z,99323.69
2022-11-03T22:34:34.239Z,99313.66
2022-11-03T22:37:02.046Z,99290.13
2022-11-03T22:39:47.579Z,99308.63
2022-11-03T22:42:32.894Z,99303.63
2022-11-03T22:45:18.220Z,99296.09
2022-11-03T22:47:46.071Z,99288.53
2022-11-03T22:50:15.222Z,99289.41
2022-11-03T22:52:42.995Z,99268.47
2022-11-03T22:55:09.805Z,99282.72
2022-11-03T22:57:37.581Z,99281.09
2022-11-03T23:00:06.645Z,99262.66
2022-11-03T23:02:34.503Z,99266.00
2022-11-03T23:05:02.366Z,99267.66
2022-11-03T23:07:34.744Z,99259.28
2022-11-03T23:10:05.237Z,99240.75
2022-11-03T23:12:33.163Z,99251.75
2022-11-03T23:15:30.041Z,99252.56
2022-11-03T23:18:15.239Z,99237.53
2022-11-03T23:21:00.880Z,99244.19
2022-11-03T23:23:48.109Z,99244.19
2022-11-03T23:26:16.382Z,99240.84
2022-11-03T23:28:44.900Z,99235.00
2022-11-03T23:31:13.332Z,99227.44
2022-11-03T23:33:41.644Z,99228.28
2022-11-03T23:36:11.229Z,99217.41
2022-11-03T23:38:41.372Z,99224.94
2022-11-03T23:41:11.651Z,99231.63
2022-11-03T23:43:39.854Z,99210.69
2022-11-03T23:46:25.462Z,99223.22
2022-11-03T23:48:53.862Z,99217.38
2022-11-03T23:51:23.851Z,99210.66
2022-11-03T23:53:54.267Z,99208.97
2022-11-03T23:56:40.955Z,99202.25
2022-11-03T23:59:09.855Z,99192.13
